sensor_id;sensor_type;location;lat;lon;timestamp;P1;durP1;ratioP1;P2;durP2;ratioP2
6113;SDS011;3087;48.392;10.836;2022-10-22T00:20:18;3.92;;;3.08;;
6113;SDS011;3087;48.392;10.836;2022-10-22T00:22:44;4.65;;;3.28;;
6113;SDS011;3087;48.392;10.836;2022-10-22T00:25:10;4.38;;;3.10;;
6113;SDS011;3087;48.392;10.836;2022-10-22T00:27:35;5.63;;;3.25;;
6113;SDS011;3087;48.392;10.836;2022-10-22T00:30:01;4.70;;;3.25;;
6113;SDS011;3087;48.392;10.836;2022-10-22T00:32:26;4.57;;;3.22;;
6113;SDS011;3087;48.392;10.836;2022-10-22T00:34:52;4.07;;;2.88;;
6113;SDS011;3087;48.392;10.836;2022-10-22T00:37:17;3.22;;;2.75;;
6113;SDS011;3087;48.392;10.836;2022-10-22T00:39:43;4.30;;;2.90;;
6113;SDS011;3087;48.392;10.836;2022-10-22T00:42:11;5.38;;;3.50;;
6113;SDS011;3087;48.392;10.836;2022-10-22T00:47:30;4.00;;;3.40;;
6113;SDS011;3087;48.392;10.836;2022-10-22T00:50:07;4.68;;;3.00;;
6113;SDS011;3087;48.392;10.836;2022-10-22T00:52:36;5.63;;;3.38;;
6113;SDS011;3087;48.392;10.836;2022-10-22T00:55:02;4.22;;;2.85;;
6113;SDS011;3087;48.392;10.836;2022-10-22T00:57:29;4.82;;;3.10;;
6113;SDS011;3087;48.392;10.836;2022-10-22T00:59:55;6.90;;;3.30;;
6113;SDS011;3087;48.392;10.836;2022-10-22T01:02:21;5.45;;;3.10;;
6113;SDS011;3087;48.392;10.836;2022-10-22T01:04:47;5.93;;;3.20;;
6113;SDS011;3087;48.392;10.836;2022-10-22T01:07:16;5.53;;;3.28;;
6113;SDS011;3087;48.392;10.836;2022-10-22T01:12:53;3.90;;;3.10;;
6113;SDS011;3087;48.392;10.836;2022-10-22T01:18:23;6.05;;;3.35;;
6113;SDS011;3087;48.392;10.836;2022-10-22T01:21:39;4.07;;;3.60;;
6113;SDS011;3087;48.392;10.836;2022-10-22T01:32:01;4.25;;;3.20;;
6113;SDS011;3087;48.392;10.836;2022-10-22T01:34:32;5.75;;;4.03;;
6113;SDS011;3087;48.392;10.836;2022-10-22T01:36:59;4.13;;;3.40;;
6113;SDS011;3087;48.392;10.836;2022-10-22T01:39:27;4.78;;;4.00;;
6113;SDS011;3087;48.392;10.836;2022-10-22T01:41:55;7.22;;;3.60;;
6113;SDS011;3087;48.392;10.836;2022-10-22T01:44:25;4.20;;;3.10;;
6113;SDS011;3087;48.392;10.836;2022-10-22T01:58:17;3.45;;;3.05;;
6113;SDS011;3087;48.392;10.836;2022-10-22T02:01:47;5.50;;;3.30;;
6113;SDS011;3087;48.392;10.836;2022-10-22T02:04:22;5.22;;;3.63;;
6113;SDS011;3087;48.392;10.836;2022-10-22T02:06:58;4.60;;;3.33;;
6113;SDS011;3087;48.392;10.836;2022-10-22T02:09:27;3.67;;;2.80;;
6113;SDS011;3087;48.392;10.836;2022-10-22T02:11:55;3.60;;;3.10;;
6113;SDS011;3087;48.392;10.836;2022-10-22T02:14:23;3.90;;;2.85;;
6113;SDS011;3087;48.392;10.836;2022-10-22T02:16:53;4.75;;;3.13;;
6113;SDS011;3087;48.392;10.836;2022-10-22T02:19:23;4.32;;;2.88;;
6113;SDS011;3087;48.392;10.836;2022-10-22T02:21:59;4.07;;;3.20;;
6113;SDS011;3087;48.392;10.836;2022-10-22T02:24:25;4.20;;;3.17;;
6113;SDS011;3087;48.392;10.836;2022-10-22T02:26:53;3.72;;;3.10;;
6113;SDS011;3087;48.392;10.836;2022-10-22T02:29:40;3.78;;;2.78;;
6113;SDS011;3087;48.392;10.836;2022-10-22T02:32:15;5.15;;;3.13;;
6113;SDS011;3087;48.392;10.836;2022-10-22T02:34:45;3.92;;;2.50;;
6113;SDS011;3087;48.392;10.836;2022-10-22T02:37:13;3.03;;;2.53;;
6113;SDS011;3087;48.392;10.836;2022-10-22T02:39:39;3.55;;;2.53;;
6113;SDS011;3087;48.392;10.836;2022-10-22T02:42:05;4.82;;;2.60;;
6113;SDS011;3087;48.392;10.836;2022-10-22T02:44:33;3.78;;;2.92;;
6113;SDS011;3087;48.392;10.836;2022-10-22T02:46:58;4.85;;;2.58;;
6113;SDS011;3087;48.392;10.836;2022-10-22T02:49:24;3.67;;;2.65;;
6113;SDS011;3087;48.392;10.836;2022-10-22T02:51:50;5.20;;;3.03;;
6113;SDS011;3087;48.392;10.836;2022-10-22T02:54:15;4.63;;;3.30;;
6113;SDS011;3087;48.392;10.836;2022-10-22T02:56:41;5.78;;;3.35;;
6113;SDS011;3087;48.392;10.836;2022-10-22T02:59:07;6.55;;;3.60;;
6113;SDS011;3087;48.392;10.836;2022-10-22T03:01:32;5.43;;;4.00;;
6113;SDS011;3087;48.392;10.836;2022-10-22T03:03:58;4.20;;;3.10;;
6113;SDS011;3087;48.392;10.836;2022-10-22T03:06:23;4.43;;;3.53;;
6113;SDS011;3087;48.392;10.836;2022-10-22T03:08:49;3.78;;;3.33;;
6113;SDS011;3087;48.392;10.836;2022-10-22T03:11:14;3.60;;;2.95;;
6113;SDS011;3087;48.392;10.836;2022-10-22T03:13:40;4.72;;;3.40;;
6113;SDS011;3087;48.392;10.836;2022-10-22T03:16:06;4.97;;;3.08;;
6113;SDS011;3087;48.392;10.836;2022-10-22T03:18:32;3.58;;;3.05;;
6113;SDS011;3087;48.392;10.836;2022-10-22T03:21:01;3.92;;;2.75;;
6113;SDS011;3087;48.392;10.836;2022-10-22T03:23:40;4.53;;;2.80;;
6113;SDS011;3087;48.392;10.836;2022-10-22T03:26:07;4.88;;;3.17;;
6113;SDS011;3087;48.392;10.836;2022-10-22T03:28:35;4.25;;;2.97;;
6113;SDS011;3087;48.392;10.836;2022-10-22T03:31:02;2.88;;;2.55;;
6113;SDS011;3087;48.392;10.836;2022-10-22T03:33:28;3.67;;;2.88;;
6113;SDS011;3087;48.392;10.836;2022-10-22T03:35:53;4.65;;;2.70;;
6113;SDS011;3087;48.392;10.836;2022-10-22T03:38:19;3.90;;;2.42;;
6113;SDS011;3087;48.392;10.836;2022-10-22T03:40:45;3.08;;;2.65;;
6113;SDS011;3087;48.392;10.836;2022-10-22T03:43:11;6.60;;;2.42;;
6113;SDS011;3087;48.392;10.836;2022-10-22T03:45:37;4.32;;;2.50;;
6113;SDS011;3087;48.392;10.836;2022-10-22T03:48:02;3.13;;;2.30;;
6113;SDS011;3087;48.392;10.836;2022-10-22T03:50:28;5.57;;;2.30;;
6113;SDS011;3087;48.392;10.836;2022-10-22T03:52:54;5.57;;;2.60;;
6113;SDS011;3087;48.392;10.836;2022-10-22T03:55:19;3.25;;;2.58;;
6113;SDS011;3087;48.392;10.836;2022-10-22T03:57:45;3.33;;;2.30;;
6113;SDS011;3087;48.392;10.836;2022-10-22T04:00:11;2.67;;;2.20;;
6113;SDS011;3087;48.392;10.836;2022-10-22T04:02:36;3.63;;;2.63;;
6113;SDS011;3087;48.392;10.836;2022-10-22T04:05:02;4.20;;;2.45;;
6113;SDS011;3087;48.392;10.836;2022-10-22T04:07:27;4.55;;;3.05;;
6113;SDS011;3087;48.392;10.836;2022-10-22T04:09:53;3.42;;;2.42;;
6113;SDS011;3087;48.392;10.836;2022-10-22T04:12:19;3.97;;;2.53;;
6113;SDS011;3087;48.392;10.836;2022-10-22T04:14:44;3.25;;;2.42;;
6113;SDS011;3087;48.392;10.836;2022-10-22T04:17:10;3.00;;;2.20;;
6113;SDS011;3087;48.392;10.836;2022-10-22T04:19:35;4.72;;;2.55;;
6113;SDS011;3087;48.392;10.836;2022-10-22T04:22:01;3.17;;;2.30;;
6113;SDS011;3087;48.392;10.836;2022-10-22T04:24:27;4.90;;;2.67;;
6113;SDS011;3087;48.392;10.836;2022-10-22T04:26:55;4.75;;;2.15;;
6113;SDS011;3087;48.392;10.836;2022-10-22T04:29:21;2.17;;;1.92;;
6113;SDS011;3087;48.392;10.836;2022-10-22T04:31:47;4.05;;;2.60;;
6113;SDS011;3087;48.392;10.836;2022-10-22T04:34:13;2.58;;;2.13;;
6113;SDS011;3087;48.392;10.836;2022-10-22T04:36:39;2.38;;;1.85;;
6113;SDS011;3087;48.392;10.836;2022-10-22T04:39:04;5.88;;;4.60;;
6113;SDS011;3087;48.392;10.836;2022-10-22T04:41:31;6.00;;;4.85;;
6113;SDS011;3087;48.392;10.836;2022-10-22T04:43:59;2.88;;;2.47;;
6113;SDS011;3087;48.392;10.836;2022-10-22T04:46:27;4.72;;;2.45;;
6113;SDS011;3087;48.392;10.836;2022-10-22T04:48:54;2.47;;;1.80;;
6113;SDS011;3087;48.392;10.836;2022-10-22T04:51:21;2.75;;;2.33;;
6113;SDS011;3087;48.392;10.836;2022-10-22T04:53:48;3.00;;;2.40;;
6113;SDS011;3087;48.392;10.836;2022-10-22T04:56:24;2.53;;;1.70;;
6113;SDS011;3087;48.392;10.836;2022-10-22T04:58:52;2.33;;;2.10;;
6113;SDS011;3087;48.392;10.836;2022-10-22T05:01:20;2.05;;;1.80;;
6113;SDS011;3087;48.392;10.836;2022-10-22T05:03:48;2.35;;;1.98;;
6113;SDS011;3087;48.392;10.836;2022-10-22T05:06:15;4.07;;;2.42;;
6113;SDS011;3087;48.392;10.836;2022-10-22T05:08:42;2.53;;;2.05;;
6113;SDS011;3087;48.392;10.836;2022-10-22T05:11:15;1.92;;;1.67;;
6113;SDS011;3087;48.392;10.836;2022-10-22T05:13:42;3.70;;;1.90;;
6113;SDS011;3087;48.392;10.836;2022-10-22T05:16:08;2.38;;;1.88;;
6113;SDS011;3087;48.392;10.836;2022-10-22T05:18:35;2.15;;;1.92;;
6113;SDS011;3087;48.392;10.836;2022-10-22T05:21:02;6.47;;;2.05;;
6113;SDS011;3087;48.392;10.836;2022-10-22T05:23:28;2.92;;;1.98;;
6113;SDS011;3087;48.392;10.836;2022-10-22T05:25:54;4.15;;;2.53;;
6113;SDS011;3087;48.392;10.836;2022-10-22T05:28:19;8.43;;;3.17;;
6113;SDS011;3087;48.392;10.836;2022-10-22T05:30:52;3.83;;;2.40;;
6113;SDS011;3087;48.392;10.836;2022-10-22T05:33:18;2.30;;;1.90;;
6113;SDS011;3087;48.392;10.836;2022-10-22T05:35:46;2.22;;;1.85;;
6113;SDS011;3087;48.392;10.836;2022-10-22T05:38:12;1.60;;;1.50;;
6113;SDS011;3087;48.392;10.836;2022-10-22T05:40:38;3.22;;;2.00;;
6113;SDS011;3087;48.392;10.836;2022-10-22T05:43:03;1.92;;;1.60;;
6113;SDS011;3087;48.392;10.836;2022-10-22T05:45:29;1.92;;;1.73;;
6113;SDS011;3087;48.392;10.836;2022-10-22T05:47:54;2.85;;;2.17;;
6113;SDS011;3087;48.392;10.836;2022-10-22T05:50:20;1.90;;;1.60;;
6113;SDS011;3087;48.392;10.836;2022-10-22T05:52:46;1.85;;;1.60;;
6113;SDS011;3087;48.392;10.836;2022-10-22T05:55:11;1.70;;;1.60;;
6113;SDS011;3087;48.392;10.836;2022-10-22T05:57:38;1.75;;;1.63;;
6113;SDS011;3087;48.392;10.836;2022-10-22T06:00:04;3.10;;;2.72;;
6113;SDS011;3087;48.392;10.836;2022-10-22T06:02:30;2.92;;;2.30;;
6113;SDS011;3087;48.392;10.836;2022-10-22T06:04:55;2.70;;;1.65;;
6113;SDS011;3087;48.392;10.836;2022-10-22T06:07:21;3.78;;;1.73;;
6113;SDS011;3087;48.392;10.836;2022-10-22T06:09:47;3.08;;;1.83;;
6113;SDS011;3087;48.392;10.836;2022-10-22T06:12:14;2.90;;;2.30;;
6113;SDS011;3087;48.392;10.836;2022-10-22T06:14:40;2.30;;;2.10;;
6113;SDS011;3087;48.392;10.836;2022-10-22T06:17:06;2.97;;;2.10;;
6113;SDS011;3087;48.392;10.836;2022-10-22T06:19:31;3.35;;;2.03;;
6113;SDS011;3087;48.392;10.836;2022-10-22T06:21:57;2.20;;;1.88;;
6113;SDS011;3087;48.392;10.836;2022-10-22T06:24:23;1.90;;;1.45;;
6113;SDS011;3087;48.392;10.836;2022-10-22T06:26:49;3.58;;;1.85;;
6113;SDS011;3087;48.392;10.836;2022-10-22T06:29:15;1.75;;;1.60;;
6113;SDS011;3087;48.392;10.836;2022-10-22T06:31:41;3.67;;;3.15;;
6113;SDS011;3087;48.392;10.836;2022-10-22T06:34:09;3.28;;;2.05;;
6113;SDS011;3087;48.392;10.836;2022-10-22T06:36:36;3.42;;;1.80;;
6113;SDS011;3087;48.392;10.836;2022-10-22T06:39:02;2.97;;;1.95;;
6113;SDS011;3087;48.392;10.836;2022-10-22T06:41:29;2.80;;;2.03;;
6113;SDS011;3087;48.392;10.836;2022-10-22T06:43:55;2.50;;;1.77;;
6113;SDS011;3087;48.392;10.836;2022-10-22T06:46:21;3.38;;;1.55;;
6113;SDS011;3087;48.392;10.836;2022-10-22T06:48:49;2.45;;;1.55;;
6113;SDS011;3087;48.392;10.836;2022-10-22T06:51:19;3.40;;;1.80;;
6113;SDS011;3087;48.392;10.836;2022-10-22T06:53:47;2.00;;;1.80;;
6113;SDS011;3087;48.392;10.836;2022-10-22T06:56:17;3.13;;;1.50;;
6113;SDS011;3087;48.392;10.836;2022-10-22T06:58:47;2.45;;;2.00;;
6113;SDS011;3087;48.392;10.836;2022-10-22T07:01:18;2.75;;;1.98;;
6113;SDS011;3087;48.392;10.836;2022-10-22T07:03:46;2.17;;;1.70;;
6113;SDS011;3087;48.392;10.836;2022-10-22T07:06:13;3.45;;;1.85;;
6113;SDS011;3087;48.392;10.836;2022-10-22T07:08:39;3.03;;;2.28;;
6113;SDS011;3087;48.392;10.836;2022-10-22T07:11:10;2.10;;;1.80;;
6113;SDS011;3087;48.392;10.836;2022-10-22T07:13:37;2.97;;;1.92;;
6113;SDS011;3087;48.392;10.836;2022-10-22T07:16:03;3.05;;;1.90;;
6113;SDS011;3087;48.392;10.836;2022-10-22T07:18:30;2.95;;;2.33;;
6113;SDS011;3087;48.392;10.836;2022-10-22T07:20:57;2.53;;;2.00;;
6113;SDS011;3087;48.392;10.836;2022-10-22T07:23:23;3.33;;;1.90;;
6113;SDS011;3087;48.392;10.836;2022-10-22T07:25:49;3.58;;;2.33;;
6113;SDS011;3087;48.392;10.836;2022-10-22T07:28:15;3.53;;;2.30;;
6113;SDS011;3087;48.392;10.836;2022-10-22T07:30:41;2.50;;;2.08;;
6113;SDS011;3087;48.392;10.836;2022-10-22T07:33:07;2.03;;;1.83;;
6113;SDS011;3087;48.392;10.836;2022-10-22T07:35:33;4.13;;;1.80;;
6113;SDS011;3087;48.392;10.836;2022-10-22T07:37:59;3.33;;;1.80;;
6113;SDS011;3087;48.392;10.836;2022-10-22T07:40:25;4.38;;;2.30;;
6113;SDS011;3087;48.392;10.836;2022-10-22T07:42:50;2.38;;;2.08;;
6113;SDS011;3087;48.392;10.836;2022-10-22T07:45:16;1.75;;;1.50;;
6113;SDS011;3087;48.392;10.836;2022-10-22T07:47:42;2.05;;;1.60;;
6113;SDS011;3087;48.392;10.836;2022-10-22T07:50:08;2.00;;;1.80;;
6113;SDS011;3087;48.392;10.836;2022-10-22T07:52:34;2.63;;;2.33;;
6113;SDS011;3087;48.392;10.836;2022-10-22T07:54:59;2.78;;;2.00;;
6113;SDS011;3087;48.392;10.836;2022-10-22T07:57:25;2.20;;;1.65;;
6113;SDS011;3087;48.392;10.836;2022-10-22T07:59:50;2.20;;;1.80;;
6113;SDS011;3087;48.392;10.836;2022-10-22T08:02:16;2.00;;;1.70;;
6113;SDS011;3087;48.392;10.836;2022-10-22T08:04:42;1.60;;;1.50;;
6113;SDS011;3087;48.392;10.836;2022-10-22T08:07:07;3.05;;;1.88;;
6113;SDS011;3087;48.392;10.836;2022-10-22T08:09:33;3.65;;;1.90;;
6113;SDS011;3087;48.392;10.836;2022-10-22T08:11:58;3.85;;;2.50;;
6113;SDS011;3087;48.392;10.836;2022-10-22T08:14:24;2.55;;;1.75;;
6113;SDS011;3087;48.392;10.836;2022-10-22T08:16:50;2.97;;;2.03;;
6113;SDS011;3087;48.392;10.836;2022-10-22T08:19:15;2.80;;;2.08;;
6113;SDS011;3087;48.392;10.836;2022-10-22T08:21:45;3.60;;;3.00;;
6113;SDS011;3087;48.392;10.836;2022-10-22T08:24:13;3.17;;;2.17;;
6113;SDS011;3087;48.392;10.836;2022-10-22T08:26:39;2.67;;;1.90;;
6113;SDS011;3087;48.392;10.836;2022-10-22T08:29:05;1.90;;;1.70;;
6113;SDS011;3087;48.392;10.836;2022-10-22T08:31:31;2.88;;;1.88;;
6113;SDS011;3087;48.392;10.836;2022-10-22T08:33:57;2.53;;;2.08;;
6113;SDS011;3087;48.392;10.836;2022-10-22T08:36:24;2.28;;;2.00;;
6113;SDS011;3087;48.392;10.836;2022-10-22T08:38:50;6.70;;;2.40;;
6113;SDS011;3087;48.392;10.836;2022-10-22T08:41:16;2.13;;;1.80;;
6113;SDS011;3087;48.392;10.836;2022-10-22T08:46:25;1.73;;;1.63;;
6113;SDS011;3087;48.392;10.836;2022-10-22T08:49:16;2.67;;;2.08;;
6113;SDS011;3087;48.392;10.836;2022-10-22T08:51:52;5.15;;;2.00;;
6113;SDS011;3087;48.392;10.836;2022-10-22T08:54:21;6.20;;;2.20;;
6113;SDS011;3087;48.392;10.836;2022-10-22T08:56:57;2.50;;;2.15;;
6113;SDS011;3087;48.392;10.836;2022-10-22T08:59:52;3.80;;;2.05;;
6113;SDS011;3087;48.392;10.836;2022-10-22T09:02:36;2.13;;;1.90;;
6113;SDS011;3087;48.392;10.836;2022-10-22T09:08:11;3.88;;;1.80;;
6113;SDS011;3087;48.392;10.836;2022-10-22T09:10:40;6.22;;;2.28;;
6113;SDS011;3087;48.392;10.836;2022-10-22T09:13:12;3.35;;;2.25;;
6113;SDS011;3087;48.392;10.836;2022-10-22T09:15:42;4.43;;;2.03;;
6113;SDS011;3087;48.392;10.836;2022-10-22T09:21:11;4.25;;;2.08;;
6113;SDS011;3087;48.392;10.836;2022-10-22T09:23:59;3.75;;;2.10;;
6113;SDS011;3087;48.392;10.836;2022-10-22T09:26:29;2.67;;;1.88;;
6113;SDS011;3087;48.392;10.836;2022-10-22T09:28:59;3.85;;;2.17;;
6113;SDS011;3087;48.392;10.836;2022-10-22T09:31:26;5.45;;;2.08;;
6113;SDS011;3087;48.392;10.836;2022-10-22T09:33:53;2.55;;;1.90;;
6113;SDS011;3087;48.392;10.836;2022-10-22T09:36:20;2.22;;;1.95;;
6113;SDS011;3087;48.392;10.836;2022-10-22T09:38:48;2.80;;;2.15;;
6113;SDS011;3087;48.392;10.836;2022-10-22T09:41:15;4.22;;;2.63;;
6113;SDS011;3087;48.392;10.836;2022-10-22T09:43:45;2.55;;;2.22;;
6113;SDS011;3087;48.392;10.836;2022-10-22T09:46:14;2.67;;;2.13;;
6113;SDS011;3087;48.392;10.836;2022-10-22T09:48:42;6.50;;;3.00;;
6113;SDS011;3087;48.392;10.836;2022-10-22T09:51:23;2.88;;;2.15;;
6113;SDS011;3087;48.392;10.836;2022-10-22T09:54:00;2.72;;;2.13;;
6113;SDS011;3087;48.392;10.836;2022-10-22T09:56:34;2.90;;;2.38;;
6113;SDS011;3087;48.392;10.836;2022-10-22T09:59:08;3.55;;;2.17;;
6113;SDS011;3087;48.392;10.836;2022-10-22T10:01:42;3.28;;;2.45;;
6113;SDS011;3087;48.392;10.836;2022-10-22T10:04:12;5.00;;;2.25;;
6113;SDS011;3087;48.392;10.836;2022-10-22T10:06:41;2.47;;;2.15;;
6113;SDS011;3087;48.392;10.836;2022-10-22T10:09:16;3.92;;;2.35;;
6113;SDS011;3087;48.392;10.836;2022-10-22T10:11:47;4.75;;;2.83;;
6113;SDS011;3087;48.392;10.836;2022-10-22T10:14:19;3.50;;;2.88;;
6113;SDS011;3087;48.392;10.836;2022-10-22T10:16:54;4.22;;;2.30;;
6113;SDS011;3087;48.392;10.836;2022-10-22T10:25:34;1.92;;;1.73;;
6113;SDS011;3087;48.392;10.836;2022-10-22T10:28:10;3.80;;;2.00;;
6113;SDS011;3087;48.392;10.836;2022-10-22T10:30:54;5.50;;;1.98;;
6113;SDS011;3087;48.392;10.836;2022-10-22T10:33:46;5.30;;;2.13;;
6113;SDS011;3087;48.392;10.836;2022-10-22T10:42:17;8.35;;;3.00;;
6113;SDS011;3087;48.392;10.836;2022-10-22T10:45:39;11.02;;;7.35;;
6113;SDS011;3087;48.392;10.836;2022-10-22T10:48:25;4.53;;;2.88;;
6113;SDS011;3087;48.392;10.836;2022-10-22T10:54:02;4.13;;;2.88;;
6113;SDS011;3087;48.392;10.836;2022-10-22T10:56:54;2.65;;;2.10;;
6113;SDS011;3087;48.392;10.836;2022-10-22T11:05:39;3.30;;;1.85;;
6113;SDS011;3087;48.392;10.836;2022-10-22T11:08:13;2.08;;;1.88;;
6113;SDS011;3087;48.392;10.836;2022-10-22T11:10:58;3.47;;;2.08;;
6113;SDS011;3087;48.392;10.836;2022-10-22T11:16:02;2.17;;;1.65;;
6113;SDS011;3087;48.392;10.836;2022-10-22T11:18:34;3.28;;;1.50;;
6113;SDS011;3087;48.392;10.836;2022-10-22T11:21:22;2.13;;;1.70;;
6113;SDS011;3087;48.392;10.836;2022-10-22T11:26:43;1.90;;;1.70;;
6113;SDS011;3087;48.392;10.836;2022-10-22T11:29:24;2.50;;;2.30;;
6113;SDS011;3087;48.392;10.836;2022-10-22T11:31:55;3.20;;;2.17;;
6113;SDS011;3087;48.392;10.836;2022-10-22T11:37:23;2.15;;;1.80;;
6113;SDS011;3087;48.392;10.836;2022-10-22T11:39:57;3.90;;;2.00;;
6113;SDS011;3087;48.392;10.836;2022-10-22T11:42:36;1.98;;;1.52;;
6113;SDS011;3087;48.392;10.836;2022-10-22T11:50:22;2.75;;;1.83;;
6113;SDS011;3087;48.392;10.836;2022-10-22T11:52:58;2.83;;;1.50;;
6113;SDS011;3087;48.392;10.836;2022-10-22T11:55:41;2.42;;;1.67;;
6113;SDS011;3087;48.392;10.836;2022-10-22T12:00:52;2.50;;;1.90;;
6113;SDS011;3087;48.392;10.836;2022-10-22T12:03:39;5.43;;;1.70;;
6113;SDS011;3087;48.392;10.836;2022-10-22T12:14:23;2.53;;;1.80;;
6113;SDS011;3087;48.392;10.836;2022-10-22T12:19:29;2.53;;;1.50;;
6113;SDS011;3087;48.392;10.836;2022-10-22T12:24:36;4.18;;;1.63;;
6113;SDS011;3087;48.392;10.836;2022-10-22T12:27:26;3.53;;;2.00;;
6113;SDS011;3087;48.392;10.836;2022-10-22T12:29:57;4.50;;;1.77;;
6113;SDS011;3087;48.392;10.836;2022-10-22T12:32:37;2.72;;;1.63;;
6113;SDS011;3087;48.392;10.836;2022-10-22T12:35:08;2.72;;;1.75;;
6113;SDS011;3087;48.392;10.836;2022-10-22T12:37:39;2.00;;;1.70;;
6113;SDS011;3087;48.392;10.836;2022-10-22T12:40:18;6.05;;;1.88;;
6113;SDS011;3087;48.392;10.836;2022-10-22T12:43:06;2.35;;;1.70;;
6113;SDS011;3087;48.392;10.836;2022-10-22T12:45:35;3.45;;;1.85;;
6113;SDS011;3087;48.392;10.836;2022-10-22T12:48:03;3.78;;;1.67;;
6113;SDS011;3087;48.392;10.836;2022-10-22T12:50:36;4.28;;;2.00;;
6113;SDS011;3087;48.392;10.836;2022-10-22T12:53:20;2.65;;;1.90;;
6113;SDS011;3087;48.392;10.836;2022-10-22T12:56:00;6.43;;;1.95;;
6113;SDS011;3087;48.392;10.836;2022-10-22T12:58:36;4.10;;;1.73;;
6113;SDS011;3087;48.392;10.836;2022-10-22T13:01:26;3.45;;;2.00;;
6113;SDS011;3087;48.392;10.836;2022-10-22T13:04:13;3.10;;;1.90;;
6113;SDS011;3087;48.392;10.836;2022-10-22T13:06:47;4.38;;;2.10;;
6113;SDS011;3087;48.392;10.836;2022-10-22T13:09:19;3.50;;;2.40;;
6113;SDS011;3087;48.392;10.836;2022-10-22T13:11:54;4.05;;;2.55;;
6113;SDS011;3087;48.392;10.836;2022-10-22T13:19:39;2.72;;;1.70;;
6113;SDS011;3087;48.392;10.836;2022-10-22T13:27:41;7.35;;;2.13;;
6113;SDS011;3087;48.392;10.836;2022-10-22T13:30:13;3.20;;;1.98;;
6113;SDS011;3087;48.392;10.836;2022-10-22T13:32:47;7.63;;;2.40;;
6113;SDS011;3087;48.392;10.836;2022-10-22T13:35:34;3.10;;;2.08;;
6113;SDS011;3087;48.392;10.836;2022-10-22T13:38:01;2.00;;;1.70;;
6113;SDS011;3087;48.392;10.836;2022-10-22T13:40:30;5.57;;;2.10;;
6113;SDS011;3087;48.392;10.836;2022-10-22T13:42:55;4.63;;;1.98;;
6113;SDS011;3087;48.392;10.836;2022-10-22T13:45:21;5.25;;;2.00;;
6113;SDS011;3087;48.392;10.836;2022-10-22T13:47:48;2.75;;;1.88;;
6113;SDS011;3087;48.392;10.836;2022-10-22T13:50:17;3.78;;;1.80;;
6113;SDS011;3087;48.392;10.836;2022-10-22T13:55:21;3.72;;;2.10;;
6113;SDS011;3087;48.392;10.836;2022-10-22T13:57:49;3.90;;;2.10;;
6113;SDS011;3087;48.392;10.836;2022-10-22T14:00:17;2.85;;;1.90;;
6113;SDS011;3087;48.392;10.836;2022-10-22T14:02:48;3.75;;;2.03;;
6113;SDS011;3087;48.392;10.836;2022-10-22T14:05:17;3.28;;;2.00;;
6113;SDS011;3087;48.392;10.836;2022-10-22T14:07:44;4.25;;;2.22;;
6113;SDS011;3087;48.392;10.836;2022-10-22T14:10:21;3.38;;;1.70;;
6113;SDS011;3087;48.392;10.836;2022-10-22T14:12:47;4.35;;;1.90;;
6113;SDS011;3087;48.392;10.836;2022-10-22T14:15:14;3.53;;;1.83;;
6113;SDS011;3087;48.392;10.836;2022-10-22T14:17:41;3.25;;;1.83;;
6113;SDS011;3087;48.392;10.836;2022-10-22T14:20:16;1.90;;;1.60;;
6113;SDS011;3087;48.392;10.836;2022-10-22T14:22:45;3.47;;;2.13;;
6113;SDS011;3087;48.392;10.836;2022-10-22T14:25:17;2.50;;;1.95;;
6113;SDS011;3087;48.392;10.836;2022-10-22T14:27:50;3.17;;;1.92;;
6113;SDS011;3087;48.392;10.836;2022-10-22T14:30:20;2.28;;;1.92;;
6113;SDS011;3087;48.392;10.836;2022-10-22T14:32:47;3.47;;;2.00;;
6113;SDS011;3087;48.392;10.836;2022-10-22T14:35:15;4.65;;;2.30;;
6113;SDS011;3087;48.392;10.836;2022-10-22T14:37:42;4.25;;;2.28;;
6113;SDS011;3087;48.392;10.836;2022-10-22T14:40:08;3.55;;;2.03;;
6113;SDS011;3087;48.392;10.836;2022-10-22T14:42:41;6.00;;;2.50;;
6113;SDS011;3087;48.392;10.836;2022-10-22T14:45:12;2.80;;;2.00;;
6113;SDS011;3087;48.392;10.836;2022-10-22T14:47:41;4.10;;;1.80;;
6113;SDS011;3087;48.392;10.836;2022-10-22T14:50:07;5.93;;;2.05;;
6113;SDS011;3087;48.392;10.836;2022-10-22T14:52:33;2.83;;;1.65;;
6113;SDS011;3087;48.392;10.836;2022-10-22T14:54:59;3.00;;;2.03;;
6113;SDS011;3087;48.392;10.836;2022-10-22T14:57:24;3.60;;;2.38;;
6113;SDS011;3087;48.392;10.836;2022-10-22T14:59:50;4.78;;;1.98;;
6113;SDS011;3087;48.392;10.836;2022-10-22T15:02:19;3.60;;;1.80;;
6113;SDS011;3087;48.392;10.836;2022-10-22T15:04:45;4.95;;;2.22;;
6113;SDS011;3087;48.392;10.836;2022-10-22T15:07:11;3.53;;;2.05;;
6113;SDS011;3087;48.392;10.836;2022-10-22T15:09:37;4.35;;;2.17;;
6113;SDS011;3087;48.392;10.836;2022-10-22T15:12:02;2.50;;;1.90;;
6113;SDS011;3087;48.392;10.836;2022-10-22T15:14:28;3.53;;;2.05;;
6113;SDS011;3087;48.392;10.836;2022-10-22T15:16:54;4.85;;;2.05;;
6113;SDS011;3087;48.392;10.836;2022-10-22T15:19:20;6.75;;;2.13;;
6113;SDS011;3087;48.392;10.836;2022-10-22T15:21:45;3.42;;;2.45;;
6113;SDS011;3087;48.392;10.836;2022-10-22T15:24:11;3.15;;;2.17;;
6113;SDS011;3087;48.392;10.836;2022-10-22T15:26:36;2.85;;;2.10;;
6113;SDS011;3087;48.392;10.836;2022-10-22T15:29:02;4.47;;;1.95;;
6113;SDS011;3087;48.392;10.836;2022-10-22T15:31:45;3.20;;;2.13;;
6113;SDS011;3087;48.392;10.836;2022-10-22T15:34:11;4.60;;;2.20;;
6113;SDS011;3087;48.392;10.836;2022-10-22T15:36:37;6.07;;;2.17;;
6113;SDS011;3087;48.392;10.836;2022-10-22T15:39:07;2.55;;;2.05;;
6113;SDS011;3087;48.392;10.836;2022-10-22T15:41:33;7.47;;;3.10;;
6113;SDS011;3087;48.392;10.836;2022-10-22T15:43:59;5.50;;;2.40;;
6113;SDS011;3087;48.392;10.836;2022-10-22T15:46:25;4.43;;;2.28;;
6113;SDS011;3087;48.392;10.836;2022-10-22T15:48:53;5.75;;;2.55;;
6113;SDS011;3087;48.392;10.836;2022-10-22T15:51:18;6.28;;;2.70;;
6113;SDS011;3087;48.392;10.836;2022-10-22T15:53:51;4.05;;;2.85;;
6113;SDS011;3087;48.392;10.836;2022-10-22T15:56:18;5.03;;;3.70;;
6113;SDS011;3087;48.392;10.836;2022-10-22T15:58:45;5.95;;;3.35;;
6113;SDS011;3087;48.392;10.836;2022-10-22T16:01:11;5.20;;;2.53;;
6113;SDS011;3087;48.392;10.836;2022-10-22T16:03:38;4.40;;;3.17;;
6113;SDS011;3087;48.392;10.836;2022-10-22T16:06:06;5.65;;;3.45;;
6113;SDS011;3087;48.392;10.836;2022-10-22T16:08:33;5.70;;;3.72;;
6113;SDS011;3087;48.392;10.836;2022-10-22T16:10:59;6.30;;;3.03;;
6113;SDS011;3087;48.392;10.836;2022-10-22T16:13:24;5.82;;;3.03;;
6113;SDS011;3087;48.392;10.836;2022-10-22T16:15:51;4.90;;;2.88;;
6113;SDS011;3087;48.392;10.836;2022-10-22T16:18:18;5.40;;;3.88;;
6113;SDS011;3087;48.392;10.836;2022-10-22T16:20:44;7.35;;;3.85;;
6113;SDS011;3087;48.392;10.836;2022-10-22T16:23:10;5.90;;;3.25;;
6113;SDS011;3087;48.392;10.836;2022-10-22T16:25:36;5.32;;;2.88;;
6113;SDS011;3087;48.392;10.836;2022-10-22T16:28:03;5.53;;;2.63;;
6113;SDS011;3087;48.392;10.836;2022-10-22T16:30:28;5.10;;;2.90;;
6113;SDS011;3087;48.392;10.836;2022-10-22T16:32:56;5.15;;;2.88;;
6113;SDS011;3087;48.392;10.836;2022-10-22T16:35:21;3.92;;;2.88;;
6113;SDS011;3087;48.392;10.836;2022-10-22T16:37:47;4.53;;;3.20;;
6113;SDS011;3087;48.392;10.836;2022-10-22T16:40:12;7.63;;;3.22;;
6113;SDS011;3087;48.392;10.836;2022-10-22T16:42:38;6.53;;;2.92;;
6113;SDS011;3087;48.392;10.836;2022-10-22T16:45:04;5.68;;;3.80;;
6113;SDS011;3087;48.392;10.836;2022-10-22T16:47:30;5.57;;;3.22;;
6113;SDS011;3087;48.392;10.836;2022-10-22T16:49:56;5.18;;;3.50;;
6113;SDS011;3087;48.392;10.836;2022-10-22T16:52:24;6.97;;;3.25;;
6113;SDS011;3087;48.392;10.836;2022-10-22T16:54:50;8.65;;;5.25;;
6113;SDS011;3087;48.392;10.836;2022-10-22T16:57:16;10.35;;;6.35;;
6113;SDS011;3087;48.392;10.836;2022-10-22T16:59:42;11.38;;;6.97;;
6113;SDS011;3087;48.392;10.836;2022-10-22T17:02:10;17.45;;;10.90;;
6113;SDS011;3087;48.392;10.836;2022-10-22T17:04:36;16.95;;;11.90;;
6113;SDS011;3087;48.392;10.836;2022-10-22T17:07:01;19.23;;;11.65;;
6113;SDS011;3087;48.392;10.836;2022-10-22T17:09:27;14.77;;;10.10;;
6113;SDS011;3087;48.392;10.836;2022-10-22T17:11:52;14.25;;;9.98;;
6113;SDS011;3087;48.392;10.836;2022-10-22T17:14:18;12.60;;;8.70;;